Time;durP1;ratioP1;P1;durP2;ratioP2;P2;SDS_P1;SDS_P2;PMS_P1;PMS_P2;Temp;Humidity;BMP_temperature;BMP_pressure;BME280_temperature;BME280_humidity;BME280_pressure;Samples;Min_cycle;Max_cycle;Signal;HPM_P1;HPM_P2
2024/01/28 00:02:06;;;;;;;40.20;18.70;;;;;;;4.87;67.81;100963.55;107845;1256;70668;-66
2024/01/28 00:04:33;;;;;;;44.20;19.50;;;;;;;4.87;67.84;100964.60;107910;1256;72930;-66
2024/01/28 00:06:59;;;;;;;40.60;19.60;;;;;;;4.93;67.59;100961.65;107970;1256;60208;-66
2024/01/28 00:09:26;;;;;;;41.40;18.70;;;;;;;4.89;67.73;100962.34;107914;1255;60157;-66
2024/01/28 00:11:53;;;;;;;46.00;20.80;;;;;;;4.95;67.49;100964.08;107896;1256;72905;-66
2024/01/28 00:14:20;;;;;;;49.00;21.70;;;;;;;4.88;67.51;100963.73;107911;1256;69300;-66
2024/01/28 00:16:48;;;;;;;43.30;20.70;;;;;;;4.94;67.33;100965.98;107873;1256;71283;-66
2024/01/28 00:19:14;;;;;;;47.90;21.70;;;;;;;4.96;67.28;100968.08;107938;1256;61060;-66
2024/01/28 00:21:41;;;;;;;39.50;19.10;;;;;;;4.96;67.15;100972.61;108123;1253;60204;-67
2024/01/28 00:24:08;;;;;;;44.20;21.20;;;;;;;4.74;67.83;100978.52;108131;1253;59518;-67
2024/01/28 00:26:41;;;;;;;46.50;21.50;;;;;;;4.74;68.12;100982.01;108119;1253;70197;-67
2024/01/28 00:29:08;;;;;;;47.20;20.90;;;;;;;4.62;68.46;100980.77;108096;1253;72654;-66
2024/01/28 00:31:34;;;;;;;45.00;22.20;;;;;;;4.56;68.79;100980.77;108002;1254;59825;-67
2024/01/28 00:34:01;;;;;;;41.80;20.40;;;;;;;4.47;69.26;100984.40;108132;1253;60340;-66
2024/01/28 00:36:28;;;;;;;62.40;28.40;;;;;;;4.52;68.78;100984.41;108100;1254;73090;-66
2024/01/28 00:38:54;;;;;;;60.40;30.40;;;;;;;4.51;68.97;100983.36;108135;1256;68719;-67
2024/01/28 00:41:22;;;;;;;61.30;30.50;;;;;;;4.69;68.53;100984.43;108139;1253;72353;-66
2024/01/28 00:43:49;;;;;;;65.60;32.00;;;;;;;4.77;68.33;100987.21;108114;1253;61198;-67
2024/01/28 00:46:16;;;;;;;53.50;25.90;;;;;;;4.81;68.21;100990.36;108137;1254;60025;-66
2024/01/28 00:48:42;;;;;;;50.50;24.40;;;;;;;4.73;68.38;100990.34;108156;1253;72930;-66
2024/01/28 00:51:09;;;;;;;49.10;24.20;;;;;;;4.67;68.67;100993.98;107954;1253;70446;-66
2024/01/28 00:53:36;;;;;;;44.40;21.80;;;;;;;4.67;68.72;100991.40;108158;1256;72739;-66
2024/01/28 00:56:03;;;;;;;49.30;23.40;;;;;;;4.75;68.62;100993.31;108226;1253;59756;-66
2024/01/28 00:58:30;;;;;;;50.70;23.40;;;;;;;4.92;68.03;100995.22;108111;1256;59541;-66
2024/01/28 01:00:57;;;;;;;46.50;21.90;;;;;;;4.89;67.86;100997.65;108071;1253;59475;-66
2024/01/28 01:03:24;;;;;;;51.70;23.70;;;;;;;4.83;68.04;100999.74;108120;1253;70923;-66
2024/01/28 01:05:51;;;;;;;50.10;23.20;;;;;;;4.80;68.13;101001.48;108052;1254;71810;-66
2024/01/28 01:08:18;;;;;;;46.40;21.80;;;;;;;4.78;68.26;101005.14;108105;1253;61136;-65
2024/01/28 01:10:44;;;;;;;40.60;19.70;;;;;;;4.87;68.03;101008.45;107945;1253;59002;-64
2024/01/28 01:13:11;;;;;;;39.20;19.10;;;;;;;4.92;68.17;101006.54;108075;1253;73025;-65
2024/01/28 01:15:38;;;;;;;45.10;21.50;;;;;;;4.98;67.87;101006.89;108126;1253;70769;-67
2024/01/28 01:18:05;;;;;;;49.90;22.10;;;;;;;5.08;67.45;101015.77;108089;1253;73091;-66
2024/01/28 01:20:33;;;;;;;40.80;18.40;;;;;;;5.10;67.38;101019.93;108145;1253;61515;-67
2024/01/28 01:22:59;;;;;;;38.30;18.60;;;;;;;5.08;67.44;101023.25;108123;1253;60028;-67
2024/01/28 01:25:26;;;;;;;39.30;18.10;;;;;;;5.03;67.44;101022.21;108197;1253;72998;-66
2024/01/28 01:27:53;;;;;;;50.30;22.00;;;;;;;5.09;67.41;101027.59;108161;1253;68996;-67
2024/01/28 01:30:20;;;;;;;39.30;18.80;;;;;;;5.16;66.98;101028.28;108118;1253;73136;-68
2024/01/28 01:32:47;;;;;;;43.70;20.20;;;;;;;5.17;67.03;101034.05;108151;1253;61226;-70
2024/01/28 01:35:14;;;;;;;47.90;21.30;;;;;;;5.22;66.77;101034.73;108074;1254;60408;-67
2024/01/28 01:37:41;;;;;;;48.20;21.50;;;;;;;5.28;66.58;101041.52;108093;1253;73794;-66
2024/01/28 01:40:09;;;;;;;46.70;21.90;;;;;;;5.30;66.48;101041.34;108127;1253;70960;-65
2024/01/28 01:42:36;;;;;;;46.20;20.30;;;;;;;5.29;66.60;101044.13;108152;1253;73427;-67
2024/01/28 01:45:03;;;;;;;38.10;19.30;;;;;;;5.25;66.85;101045.52;108181;1254;61199;-69
2024/01/28 01:47:30;;;;;;;48.80;21.90;;;;;;;5.25;67.11;101049.53;108167;1253;60316;-67
2024/01/28 01:49:57;;;;;;;40.00;19.50;;;;;;;5.22;67.07;101051.27;108176;1253;72418;-67
2024/01/28 01:52:24;;;;;;;50.00;21.10;;;;;;;5.25;67.16;101055.62;108127;1256;70362;-67
2024/01/28 01:54:50;;;;;;;45.50;21.70;;;;;;;5.25;66.95;101056.67;108113;1257;72931;-66
2024/01/28 01:57:17;;;;;;;44.10;19.90;;;;;;;5.24;66.84;101061.02;108007;1254;61380;-66
2024/01/28 01:59:44;;;;;;;55.00;23.60;;;;;;;5.23;67.04;101064.33;108118;1254;60303;-67
2024/01/28 02:02:10;;;;;;;44.50;20.40;;;;;;;5.23;66.92;101070.42;107957;1253;74164;-66
2024/01/28 02:04:38;;;;;;;39.00;18.50;;;;;;;5.22;66.91;101069.04;108055;1257;69228;-65
2024/01/28 02:07:06;;;;;;;47.80;21.00;;;;;;;5.29;66.87;101068.67;108138;1253;71504;-66
2024/01/28 02:09:34;;;;;;;42.20;19.60;;;;;;;5.31;66.88;101070.95;108049;1253;61175;-66
2024/01/28 02:12:01;;;;;;;45.60;22.40;;;;;;;5.34;66.78;101074.78;108073;1253;60382;-67
2024/01/28 02:14:28;;;;;;;51.00;23.10;;;;;;;5.32;66.98;101078.43;108109;1254;72636;-66
2024/01/28 02:16:55;;;;;;;45.40;21.30;;;;;;;5.27;66.85;101083.65;108075;1253;70723;-66
2024/01/28 02:19:22;;;;;;;54.90;23.80;;;;;;;5.28;66.86;101085.73;108041;1253;72614;-66
2024/01/28 02:21:49;;;;;;;46.90;21.30;;;;;;;5.24;66.99;101092.02;108092;1254;60894;-66
2024/01/28 02:24:16;;;;;;;50.30;22.30;;;;;;;5.14;67.27;101093.57;108140;1253;59555;-67
2024/01/28 02:26:42;;;;;;;57.10;25.10;;;;;;;5.06;67.33;101098.43;108090;1254;73640;-67
2024/01/28 02:29:09;;;;;;;58.70;25.00;;;;;;;5.09;67.58;101102.27;108093;1253;70748;-67
2024/01/28 02:31:36;;;;;;;47.80;21.80;;;;;;;5.12;67.32;101106.63;108114;1257;72688;-66
2024/01/28 02:34:02;;;;;;;51.10;22.70;;;;;;;5.16;67.27;101106.45;108141;1254;59842;-66
2024/01/28 02:36:30;;;;;;;59.20;25.10;;;;;;;5.21;66.96;101107.67;108104;1254;59823;-66
2024/01/28 02:38:56;;;;;;;59.90;24.80;;;;;;;5.22;66.64;101107.16;108123;1256;72549;-66
2024/01/28 02:41:23;;;;;;;46.00;20.40;;;;;;;5.16;66.91;101108.71;108088;1254;71156;-67
2024/01/28 02:43:49;;;;;;;52.40;23.70;;;;;;;5.13;67.38;101107.85;108061;1253;60235;-67
2024/01/28 02:46:16;;;;;;;70.40;25.90;;;;;;;5.25;66.82;101112.90;108092;1254;61278;-65
2024/01/28 02:48:43;;;;;;;52.30;22.80;;;;;;;5.26;67.15;101114.13;107950;1253;60343;-66
2024/01/28 02:51:10;;;;;;;63.30;26.10;;;;;;;5.19;67.38;101110.98;108105;1255;72688;-66
2024/01/28 02:53:37;;;;;;;53.20;23.20;;;;;;;5.16;67.15;101114.64;108110;1254;69744;-67
2024/01/28 02:56:05;;;;;;;52.60;24.70;;;;;;;5.15;67.22;101112.89;108088;1253;72956;-66
2024/01/28 02:58:32;;;;;;;56.20;24.40;;;;;;;5.16;67.14;101120.56;108086;1256;61037;-66
2024/01/28 03:00:59;;;;;;;56.10;24.10;;;;;;;5.16;66.99;101123.69;108138;1254;60418;-64
2024/01/28 03:03:26;;;;;;;66.10;27.40;;;;;;;5.13;67.15;101122.98;108154;1256;74248;-66
2024/01/28 03:05:53;;;;;;;48.10;21.50;;;;;;;5.17;67.40;101129.09;108221;1254;69218;-66
2024/01/28 03:08:20;;;;;;;53.50;24.50;;;;;;;5.21;67.37;101129.45;108101;1254;73132;-67
2024/01/28 03:10:46;;;;;;;57.00;24.80;;;;;;;5.21;67.22;101131.53;108126;1253;60373;-66
2024/01/28 03:13:13;;;;;;;58.70;23.70;;;;;;;5.33;66.80;101135.54;108086;1253;60303;-66
2024/01/28 03:15:39;;;;;;;56.40;24.90;;;;;;;5.32;66.77;101136.77;108114;1253;60393;-67
2024/01/28 03:18:06;;;;;;;61.50;25.70;;;;;;;5.33;66.80;101137.98;108114;1254;70134;-66
2024/01/28 03:20:33;;;;;;;59.70;23.60;;;;;;;5.39;66.79;101141.46;107934;1259;71561;-66
2024/01/28 03:22:59;;;;;;;70.20;27.90;;;;;;;5.46;66.31;101149.48;107969;1254;61490;-66
2024/01/28 03:25:26;;;;;;;62.90;27.40;;;;;;;5.45;66.30;101153.84;107978;1258;60331;-66
2024/01/28 03:27:54;;;;;;;72.70;28.00;;;;;;;5.43;66.32;101155.06;108023;1254;73762;-66
2024/01/28 03:30:20;;;;;;;65.20;27.00;;;;;;;5.32;66.58;101158.54;108055;1258;69346;-67
2024/01/28 03:32:47;;;;;;;56.20;23.00;;;;;;;5.15;67.30;101160.59;108130;1257;72499;-67
2024/01/28 03:35:17;;;;;;;71.90;27.00;;;;;;;5.19;67.22;101169.30;108023;1256;61224;-66
2024/01/28 03:37:45;;;;;;;58.80;24.90;;;;;;;5.16;67.32;101167.03;107975;1254;60136;-67
2024/01/28 03:40:12;;;;;;;65.30;27.20;;;;;;;5.22;67.16;101169.48;108019;1254;73734;-67
2024/01/28 03:42:39;;;;;;;68.10;29.00;;;;;;;5.24;67.14;101175.59;107969;1258;69976;-67
2024/01/28 03:45:06;;;;;;;50.70;21.70;;;;;;;5.27;67.14;101178.90;107970;1256;72544;-65
2024/01/28 03:47:33;;;;;;;61.80;25.90;;;;;;;5.25;67.20;101181.52;107988;1254;60310;-66
2024/01/28 03:50:00;;;;;;;58.40;22.80;;;;;;;5.25;67.22;101185.16;108053;1258;60279;-66
2024/01/28 03:52:26;;;;;;;69.40;26.30;;;;;;;5.31;66.75;101188.83;108059;1254;60268;-67
2024/01/28 03:54:53;;;;;;;60.00;26.10;;;;;;;5.39;66.47;101189.19;107973;1254;60538;-67
2024/01/28 03:57:20;;;;;;;45.50;19.50;;;;;;;5.53;66.14;101193.39;108001;1254;72433;-66
2024/01/28 03:59:46;;;;;;;64.40;25.90;;;;;;;5.58;65.79;101196.86;108041;1254;61119;-66
2024/01/28 04:02:14;;;;;;;67.10;26.80;;;;;;;5.66;65.87;101202.45;108018;1260;60104;-67
2024/01/28 04:04:41;;;;;;;61.90;24.20;;;;;;;5.68;65.64;101207.33;108048;1254;73687;-66
2024/01/28 04:07:08;;;;;;;62.50;27.40;;;;;;;5.63;65.72;101208.72;108088;1258;70390;-66
2024/01/28 04:09:37;;;;;;;57.40;25.10;;;;;;;5.66;65.67;101210.81;107921;1254;72519;-65
2024/01/28 04:12:04;;;;;;;59.20;26.50;;;;;;;5.67;65.47;101215.52;108066;1253;61234;-66
2024/01/28 04:14:31;;;;;;;70.10;28.00;;;;;;;5.63;65.39;101219.17;108075;1254;60518;-66
2024/01/28 04:16:58;;;;;;;58.40;23.10;;;;;;;5.48;66.07;101222.30;107989;1254;73630;-66
2024/01/28 04:19:24;;;;;;;51.90;24.00;;;;;;;5.50;66.01;101228.56;108012;1254;70862;-66
2024/01/28 04:21:51;;;;;;;63.50;27.00;;;;;;;5.53;65.93;101234.84;108138;1254;72541;-66
2024/01/28 04:24:18;;;;;;;69.70;28.10;;;;;;;5.54;65.83;101240.07;108181;1254;60498;-63
2024/01/28 04:26:44;;;;;;;69.70;28.00;;;;;;;5.54;65.56;101240.76;108091;1253;60378;-66
2024/01/28 04:29:11;;;;;;;57.10;23.30;;;;;;;5.53;65.72;101243.90;108042;1253;73765;-65
2024/01/28 04:31:42;;;;;;;66.80;26.70;;;;;;;5.54;65.80;101243.04;108081;1255;70284;-66
2024/01/28 04:34:10;;;;;;;59.60;25.60;;;;;;;5.50;65.92;101244.24;108183;1257;72736;-66
2024/01/28 04:36:36;;;;;;;63.10;27.60;;;;;;;5.52;65.72;101248.77;108177;1254;61065;-65
2024/01/28 04:39:03;;;;;;;63.70;25.10;;;;;;;5.48;65.97;101249.46;108177;1253;60800;-66
2024/01/28 04:41:30;;;;;;;76.30;28.40;;;;;;;5.43;66.34;101254.51;108183;1255;73958;-65
2024/01/28 04:43:56;;;;;;;69.60;29.20;;;;;;;5.45;66.20;101253.98;108190;1254;70892;-66
2024/01/28 04:46:23;;;;;;;67.60;28.50;;;;;;;5.50;66.06;101261.66;108200;1257;72942;-67
2024/01/28 04:48:50;;;;;;;54.50;23.40;;;;;;;5.57;65.83;101267.27;108148;1257;60307;-66
2024/01/28 04:51:17;;;;;;;65.70;27.20;;;;;;;5.54;65.96;101269.67;108204;1255;60406;-66
2024/01/28 04:53:44;;;;;;;62.80;26.70;;;;;;;5.54;65.79;101271.78;108119;1254;74282;-66
2024/01/28 04:56:11;;;;;;;67.60;28.60;;;;;;;5.51;66.05;101273.52;108204;1253;71376;-66
2024/01/28 04:58:38;;;;;;;67.10;26.20;;;;;;;5.48;66.20;101272.80;108173;1255;72688;-65
2024/01/28 05:01:05;;;;;;;62.50;25.20;;;;;;;5.37;66.49;101276.27;108158;1254;61063;-65
2024/01/28 05:03:33;;;;;;;72.40;29.00;;;;;;;5.43;66.22;101280.28;108110;1257;60400;-66
2024/01/28 05:06:00;;;;;;;56.60;25.10;;;;;;;5.44;66.36;101278.19;108153;1254;73833;-65
2024/01/28 05:08:27;;;;;;;57.10;24.80;;;;;;;5.39;66.47;101278.88;108141;1254;70100;-66
2024/01/28 05:10:54;;;;;;;67.10;27.20;;;;;;;5.41;66.55;101281.50;108190;1254;72380;-66
2024/01/28 05:13:21;;;;;;;63.20;26.80;;;;;;;5.41;66.09;101279.92;108143;1254;60366;-66
2024/01/28 05:15:48;;;;;;;69.80;28.10;;;;;;;5.39;66.38;101285.67;108177;1254;60395;-66
2024/01/28 05:18:15;;;;;;;71.70;27.60;;;;;;;5.44;65.82;101289.17;108145;1254;73553;-67
2024/01/28 05:20:43;;;;;;;64.90;27.00;;;;;;;5.47;66.10;101288.66;108137;1254;70263;-66
2024/01/28 05:23:10;;;;;;;67.10;27.40;;;;;;;5.43;66.05;101295.96;108243;1254;71428;-66
2024/01/28 05:25:37;;;;;;;56.30;23.80;;;;;;;5.51;65.87;101297.89;108137;1254;61026;-66
2024/01/28 05:28:06;;;;;;;66.50;26.00;;;;;;;5.50;65.94;101302.08;108098;1253;60204;-66
2024/01/28 05:30:33;;;;;;;73.30;29.70;;;;;;;5.43;66.14;101306.77;108194;1254;72687;-65
2024/01/28 05:32:59;;;;;;;56.80;23.70;;;;;;;5.42;66.16;101313.20;108149;1253;70448;-66
2024/01/28 05:35:26;;;;;;;71.50;29.40;;;;;;;5.43;66.26;101313.38;108160;1254;73077;-66
2024/01/28 05:37:53;;;;;;;66.30;26.40;;;;;;;5.35;66.27;101317.36;108161;1253;60964;-66
2024/01/28 05:40:19;;;;;;;65.70;25.50;;;;;;;5.33;66.67;101324.48;108165;1254;60332;-65
2024/01/28 05:42:46;;;;;;;65.60;26.90;;;;;;;5.36;66.52;101333.02;108154;1257;73624;-66
2024/01/28 05:45:13;;;;;;;62.50;25.30;;;;;;;5.43;66.49;101331.31;108170;1253;70950;-66
2024/01/28 05:47:39;;;;;;;71.90;29.40;;;;;;;5.51;66.08;101337.44;108257;1254;72976;-64
2024/01/28 05:50:07;;;;;;;60.60;25.00;;;;;;;5.53;66.11;101343.20;108181;1253;61273;-66
2024/01/28 05:52:34;;;;;;;56.40;23.30;;;;;;;5.54;65.99;101348.23;108200;1254;60440;-65
2024/01/28 05:55:02;;;;;;;73.30;27.60;;;;;;;5.53;66.00;101351.90;108147;1253;74701;-65
2024/01/28 05:57:29;;;;;;;77.20;28.60;;;;;;;5.48;66.14;101354.50;108160;1254;70875;-65
2024/01/28 05:59:56;;;;;;;72.70;26.60;;;;;;;5.40;66.20;101357.08;108119;1254;72568;-65
2024/01/28 06:02:23;;;;;;;62.30;25.50;;;;;;;5.28;66.39;101359.64;108143;1254;60973;-66
2024/01/28 06:04:49;;;;;;;59.30;24.10;;;;;;;5.27;66.50;101367.66;108212;1253;60320;-66
2024/01/28 06:07:16;;;;;;;78.20;29.70;;;;;;;5.32;66.55;101371.84;108202;1254;74891;-66
2024/01/28 06:09:43;;;;;;;69.10;27.00;;;;;;;5.41;66.15;101373.11;108226;1256;69095;-66
2024/01/28 06:12:10;;;;;;;71.70;27.60;;;;;;;5.35;66.31;101376.56;108163;1254;72339;-67
2024/01/28 06:14:36;;;;;;;70.50;26.40;;;;;;;5.40;66.34;101380.59;108197;1254;61186;-67
2024/01/28 06:17:04;;;;;;;74.30;28.70;;;;;;;5.53;66.24;101385.87;108228;1254;60300;-64
2024/01/28 06:19:30;;;;;;;82.10;29.70;;;;;;;5.55;65.99;101386.92;108306;1253;73785;-68
2024/01/28 06:22:01;;;;;;;64.90;25.80;;;;;;;5.60;65.71;101387.30;108209;1254;70363;-67
2024/01/28 06:24:30;;;;;;;79.70;29.60;;;;;;;5.64;65.60;101392.17;108208;1254;71473;-67
2024/01/28 06:26:56;;;;;;;81.20;28.30;;;;;;;5.55;65.68;101398.25;108239;1254;61312;-66
2024/01/28 06:29:23;;;;;;;63.20;26.60;;;;;;;5.45;66.22;101401.17;108226;1254;60417;-65
2024/01/28 06:31:50;;;;;;;72.10;29.00;;;;;;;5.51;66.31;101406.95;108215;1253;73853;-67
2024/01/28 06:34:17;;;;;;;69.40;26.80;;;;;;;5.47;66.61;101409.36;108253;1254;70007;-67
2024/01/28 06:36:44;;;;;;;54.30;23.60;;;;;;;5.51;66.64;101418.79;108178;1253;71133;-63
2024/01/28 06:39:10;;;;;;;69.80;27.90;;;;;;;5.59;66.23;101419.52;108195;1256;60313;-66
2024/01/28 06:41:37;;;;;;;55.80;23.60;;;;;;;5.61;66.24;101424.94;108203;1253;60015;-65
2024/01/28 06:44:04;;;;;;;73.30;31.00;;;;;;;5.66;66.03;101425.30;108175;1253;73854;-66
2024/01/28 06:46:31;;;;;;;69.30;27.70;;;;;;;5.65;65.97;101428.42;108182;1253;70359;-67
2024/01/28 06:48:57;;;;;;;63.90;24.40;;;;;;;5.73;65.46;101421.84;108155;1253;60300;-66
2024/01/28 06:51:24;;;;;;;72.20;27.80;;;;;;;5.69;65.73;101421.30;108165;1253;60344;-66
2024/01/28 06:53:52;;;;;;;57.40;23.50;;;;;;;5.67;65.72;101425.13;108190;1254;60180;-66
2024/01/28 06:56:19;;;;;;;64.10;27.20;;;;;;;5.65;65.86;101424.42;108170;1253;72573;-66
2024/01/28 06:58:47;;;;;;;66.00;27.00;;;;;;;5.71;65.76;101428.28;108164;1253;70333;-66
2024/01/28 07:01:14;;;;;;;54.80;23.70;;;;;;;5.73;65.81;101433.67;108148;1253;72639;-66
2024/01/28 07:03:42;;;;;;;63.30;27.30;;;;;;;5.70;65.76;101439.25;108163;1254;61223;-66
2024/01/28 07:06:14;;;;;;;67.50;28.10;;;;;;;5.66;65.48;101441.85;108195;1253;60296;-66
2024/01/28 07:08:40;;;;;;;61.60;24.50;;;;;;;5.66;65.59;101444.11;108211;1253;72601;-66
2024/01/28 07:11:07;;;;;;;62.40;25.20;;;;;;;5.70;65.45;101444.65;108143;1254;70274;-67
2024/01/28 07:13:33;;;;;;;53.50;23.40;;;;;;;5.74;65.52;101445.02;108195;1252;71253;-67
2024/01/28 07:16:01;;;;;;;58.60;26.00;;;;;;;5.76;65.55;101449.38;108149;1252;61308;-66
2024/01/28 07:18:29;;;;;;;67.90;28.90;;;;;;;5.75;65.46;101449.73;108135;1253;60190;-66
2024/01/28 07:20:56;;;;;;;64.40;25.00;;;;;;;5.72;65.48;101453.20;108112;1253;74006;-67
2024/01/28 07:23:22;;;;;;;70.50;28.40;;;;;;;5.70;65.50;101458.59;108142;1253;70799;-67
2024/01/28 07:25:49;;;;;;;49.00;22.30;;;;;;;5.78;65.37;101461.77;108154;1253;72516;-67
2024/01/28 07:28:16;;;;;;;60.30;24.80;;;;;;;5.87;65.17;101466.50;108192;1254;60922;-66
2024/01/28 07:30:43;;;;;;;58.20;25.20;;;;;;;5.91;64.82;101469.33;108199;1253;60222;-67
2024/01/28 07:33:10;;;;;;;56.20;23.90;;;;;;;5.93;64.80;101468.80;108178;1256;73635;-67
2024/01/28 07:35:37;;;;;;;62.90;28.10;;;;;;;5.93;64.77;101471.42;108212;1253;70214;-66
2024/01/28 07:38:03;;;;;;;59.80;26.70;;;;;;;5.83;64.97;101473.11;108158;1253;61098;-67
2024/01/28 07:40:30;;;;;;;56.00;25.70;;;;;;;5.83;65.03;101476.95;108151;1253;60864;-67
2024/01/28 07:42:57;;;;;;;65.60;27.20;;;;;;;5.84;64.88;101476.25;108183;1253;60306;-67
2024/01/28 07:45:24;;;;;;;58.30;26.60;;;;;;;5.87;64.84;101483.08;108221;1253;73656;-66
2024/01/28 07:47:50;;;;;;;66.30;28.80;;;;;;;5.95;64.54;101485.39;108251;1253;70057;-67
2024/01/28 07:50:18;;;;;;;55.30;25.80;;;;;;;5.99;64.32;101488.02;108224;1255;72548;-66
2024/01/28 07:52:44;;;;;;;52.90;24.30;;;;;;;6.04;64.15;101487.52;108048;1253;61200;-66
2024/01/28 07:55:11;;;;;;;53.00;23.90;;;;;;;6.06;64.01;101489.44;108194;1253;60470;-66
2024/01/28 07:57:38;;;;;;;63.60;26.80;;;;;;;6.06;63.73;101498.15;108194;1254;73694;-66
2024/01/28 08:00:06;;;;;;;58.80;25.50;;;;;;;6.05;63.44;101503.05;108199;1253;70707;-66
2024/01/28 08:02:38;;;;;;;56.00;24.50;;;;;;;6.03;63.82;101507.20;108168;1253;73444;-66
2024/01/28 08:05:05;;;;;;;59.80;26.20;;;;;;;5.97;63.81;101507.89;108165;1253;60899;-66
2024/01/28 08:07:32;;;;;;;60.50;25.90;;;;;;;5.98;63.88;101509.10;108212;1253;60421;-66
2024/01/28 08:09:59;;;;;;;54.90;25.40;;;;;;;6.01;63.44;101516.96;108183;1253;73666;-66
2024/01/28 08:12:26;;;;;;;54.50;24.40;;;;;;;5.94;63.63;101520.58;108193;1253;70037;-66
2024/01/28 08:14:53;;;;;;;58.80;25.60;;;;;;;5.92;63.51;101523.16;108248;1253;73759;-66
2024/01/28 08:17:20;;;;;;;59.70;25.60;;;;;;;5.96;63.64;101531.59;108231;1253;61239;-66
2024/01/28 08:19:46;;;;;;;57.50;26.20;;;;;;;5.99;63.41;101535.45;108200;1253;60504;-67
2024/01/28 08:22:13;;;;;;;54.80;26.20;;;;;;;5.97;63.43;101540.30;108180;1253;73638;-66
2024/01/28 08:24:40;;;;;;;57.40;24.90;;;;;;;6.05;63.49;101541.39;108213;1253;70407;-66
2024/01/28 08:27:07;;;;;;;55.80;26.40;;;;;;;6.04;63.38;101545.93;108051;1255;72697;-67
2024/01/28 08:29:34;;;;;;;53.00;24.30;;;;;;;6.12;63.15;101548.92;108144;1253;61114;-66
2024/01/28 08:32:00;;;;;;;61.70;27.50;;;;;;;6.15;63.22;101552.77;108173;1253;60409;-67
2024/01/28 08:34:27;;;;;;;54.20;24.60;;;;;;;6.16;63.09;101552.42;108154;1253;73773;-68
2024/01/28 08:36:54;;;;;;;51.30;24.60;;;;;;;6.26;63.04;101553.69;108150;1252;70251;-67
2024/01/28 08:39:21;;;;;;;55.30;26.00;;;;;;;6.31;62.65;101557.02;108196;1253;72407;-68
2024/01/28 08:41:48;;;;;;;53.00;22.70;;;;;;;6.31;62.27;101562.59;108134;1253;61129;-66
2024/01/28 08:44:15;;;;;;;55.70;24.70;;;;;;;6.40;62.34;101560.19;108147;1257;60374;-67
2024/01/28 08:46:42;;;;;;;57.90;25.80;;;;;;;6.49;62.19;101565.10;108152;1253;73699;-67
2024/01/28 08:49:08;;;;;;;56.20;25.90;;;;;;;6.49;61.81;101565.61;108156;1253;70206;-67
2024/01/28 08:51:35;;;;;;;53.10;25.50;;;;;;;6.51;62.03;101569.46;108150;1253;72486;-67
2024/01/28 08:54:02;;;;;;;40.70;20.20;;;;;;;6.51;62.01;101571.02;108127;1253;60434;-66
2024/01/28 08:56:29;;;;;;;63.80;27.00;;;;;;;6.53;61.98;101570.35;108120;1253;60432;-67
2024/01/28 08:58:56;;;;;;;57.30;26.50;;;;;;;6.44;61.44;101570.31;108173;1253;74166;-67
2024/01/28 09:01:23;;;;;;;50.60;24.60;;;;;;;6.46;61.62;101571.88;108186;1253;70089;-67
2024/01/28 09:03:50;;;;;;;55.60;25.10;;;;;;;6.42;61.85;101568.73;108214;1253;72464;-67
2024/01/28 09:06:16;;;;;;;56.40;23.20;;;;;;;6.45;62.24;101569.95;108251;1253;61109;-68
2024/01/28 09:08:43;;;;;;;51.70;23.50;;;;;;;6.48;62.30;101574.34;108049;1253;60429;-68
2024/01/28 09:11:10;;;;;;;58.80;26.00;;;;;;;6.41;61.98;101573.61;108175;1253;73919;-67
2024/01/28 09:13:37;;;;;;;47.00;22.20;;;;;;;6.32;61.96;101570.80;108151;1256;70212;-67
2024/01/28 09:16:04;;;;;;;53.30;24.20;;;;;;;6.31;62.16;101575.49;108254;1253;72661;-67
2024/01/28 09:18:31;;;;;;;53.10;23.60;;;;;;;6.40;62.17;101576.23;108201;1254;61003;-66
2024/01/28 09:20:58;;;;;;;47.10;22.10;;;;;;;6.49;62.16;101575.91;108167;1253;60421;-67
2024/01/28 09:23:25;;;;;;;55.20;25.10;;;;;;;6.51;61.91;101577.48;108169;1253;72592;-67
2024/01/28 09:25:52;;;;;;;49.90;23.00;;;;;;;6.55;61.98;101576.97;108171;1252;70229;-66
2024/01/28 09:28:18;;;;;;;51.30;23.40;;;;;;;6.60;62.08;101575.06;108112;1254;72923;-66
2024/01/28 09:30:45;;;;;;;57.30;25.80;;;;;;;6.64;61.42;101577.16;108169;1253;61233;-67
2024/01/28 09:33:12;;;;;;;54.80;24.90;;;;;;;6.63;61.47;101578.20;108160;1253;60345;-67
2024/01/28 09:35:39;;;;;;;57.30;24.80;;;;;;;6.56;61.74;101580.48;108185;1253;74727;-67
2024/01/28 09:38:09;;;;;;;47.80;22.70;;;;;;;6.59;61.32;101578.36;108100;1253;106110;-66
2024/01/28 09:41:53;;;;;;;53.40;23.70;;;;;;;4.90;66.77;101592.80;104948;1294;600877;-67
2024/01/28 09:44:20;;;;;;;53.90;24.10;;;;;;;5.34;65.87;101592.51;107347;1264;59860;-67
2024/01/28 09:46:48;;;;;;;54.20;24.50;;;;;;;5.47;65.19;101591.73;107337;1264;59276;-67
2024/01/28 09:49:15;;;;;;;58.80;24.90;;;;;;;5.60;65.14;101587.99;107305;1264;71985;-67
2024/01/28 09:51:43;;;;;;;50.80;22.80;;;;;;;5.63;64.64;101590.64;107296;1264;69589;-66
2024/01/28 09:54:12;;;;;;;52.50;23.10;;;;;;;5.67;64.54;101592.75;107243;1264;72478;-68
2024/01/28 09:56:41;;;;;;;49.90;22.50;;;;;;;5.74;64.74;101594.02;107204;1262;199774;-67
2024/01/28 09:59:12;;;;;;;51.10;23.10;;;;;;;5.86;64.39;101590.77;107305;1263;59253;-67
2024/01/28 10:01:42;;;;;;;56.00;25.10;;;;;;;5.89;64.24;101588.36;107332;1263;70990;-67
2024/01/28 10:04:15;;;;;;;;;;;;;;;5.87;63.63;101591.66;107362;1269;70297;-67
2024/01/28 10:06:47;;;;;;;54.20;23.90;;;;;;;5.88;63.78;101587.30;107305;1266;72738;-68
2024/01/28 10:09:14;;;;;;;47.50;22.10;;;;;;;5.79;63.82;101590.89;107328;1263;61040;-67
2024/01/28 10:11:42;;;;;;;55.30;24.00;;;;;;;5.85;63.95;101594.27;107329;1264;59483;-67
2024/01/28 10:14:09;;;;;;;54.20;24.00;;;;;;;5.87;63.64;101593.73;107324;1263;73076;-67
2024/01/28 10:16:38;;;;;;;52.50;25.20;;;;;;;5.78;63.93;101593.17;107324;1264;69680;-66
2024/01/28 10:19:05;;;;;;;57.90;25.40;;;;;;;5.80;64.03;101593.69;107318;1263;72714;-66
2024/01/28 10:21:33;;;;;;;55.90;25.80;;;;;;;5.82;64.26;101598.06;107363;1263;60461;-66
2024/01/28 10:24:02;;;;;;;59.50;26.10;;;;;;;5.74;64.36;101602.04;107290;1266;59602;-66
2024/01/28 10:26:29;;;;;;;59.00;26.10;;;;;;;5.75;64.32;101603.77;107371;1263;73033;-66
2024/01/28 10:28:57;;;;;;;61.70;27.70;;;;;;;5.81;64.47;101603.64;107303;1263;69901;-66
2024/01/28 10:31:24;;;;;;;61.10;25.90;;;;;;;5.82;64.45;101604.70;107339;1266;72673;-66
2024/01/28 10:33:52;;;;;;;55.90;24.80;;;;;;;5.83;64.32;101613.07;107294;1263;60081;-66
2024/01/28 10:36:19;;;;;;;57.00;26.00;;;;;;;5.90;64.48;101610.66;107328;1263;59401;-66
2024/01/28 10:38:48;;;;;;;58.90;26.70;;;;;;;5.95;64.26;101615.43;107820;1256;71645;-66
2024/01/28 10:41:17;;;;;;;44.80;20.70;;;;;;;5.99;64.05;101615.45;107828;1255;68797;-66
2024/01/28 10:43:52;;;;;;;59.90;25.30;;;;;;;6.01;64.47;101621.74;107908;1256;72814;-66
2024/01/28 10:46:19;;;;;;;55.10;23.90;;;;;;;6.01;64.30;101624.19;107759;1254;59599;-65
2024/01/28 10:48:47;;;;;;;53.20;23.80;;;;;;;5.96;63.97;101627.81;107732;1257;59123;-65
2024/01/28 10:51:15;;;;;;;52.10;23.90;;;;;;;5.91;64.06;101629.85;107844;1257;73174;-66
2024/01/28 10:53:43;;;;;;;58.30;25.30;;;;;;;5.92;63.90;101630.55;107822;1260;69536;-67
2024/01/28 10:56:12;;;;;;;60.90;26.00;;;;;;;5.99;63.97;101634.63;107792;1257;71899;-66
2024/01/28 10:58:39;;;;;;;60.00;26.10;;;;;;;5.95;63.58;101638.27;107762;1256;59926;-66
2024/01/28 11:01:07;;;;;;;54.40;25.00;;;;;;;5.92;63.59;101637.87;107796;1256;59992;-66
2024/01/28 11:03:35;;;;;;;63.20;28.00;;;;;;;5.86;63.96;101638.54;107718;1256;71772;-66
2024/01/28 11:06:02;;;;;;;68.10;27.20;;;;;;;5.77;63.95;101645.97;107642;1257;70862;-66
2024/01/28 11:08:30;;;;;;;63.70;26.70;;;;;;;5.73;64.32;101645.24;107863;1256;72745;-66
2024/01/28 11:10:59;;;;;;;64.60;27.40;;;;;;;5.77;64.26;101642.15;107824;1255;59745;-66